Time;durP1;ratioP1;P1;durP2;ratioP2;P2;SDS_P1;SDS_P2;PMS_P1;PMS_P2;Temp;Humidity;BMP_temperature;BMP_pressure;BME280_temperature;BME280_humidity;BME280_pressure;Samples;Min_cycle;Max_cycle;Signal;HPM_P1;HPM_P2
2023/05/26 00:01:37;;;;;;;24.08;5.30;;;;;;;9.62;75.66;102745.69;5104377;27;20806;-72
2023/05/26 00:04:24;;;;;;;24.58;5.60;;;;;;;9.62;76.00;102748.34;5107099;27;20060;-73
2023/05/26 00:07:10;;;;;;;22.55;4.78;;;;;;;9.63;75.74;102752.72;5097982;27;20048;-73
2023/05/26 00:09:55;;;;;;;22.35;4.88;;;;;;;9.56;76.18;102754.44;5103942;28;20528;-74
2023/05/26 00:12:41;;;;;;;25.80;5.07;;;;;;;9.46;76.36;102753.50;5104831;28;20048;-73
2023/05/26 00:15:26;;;;;;;27.73;5.20;;;;;;;9.40;76.55;102758.75;5105689;27;20103;-73
2023/05/26 00:18:12;;;;;;;23.90;5.55;;;;;;;9.37;77.14;102757.88;5106568;28;20048;-73
2023/05/26 00:20:57;;;;;;;26.40;5.22;;;;;;;9.32;77.36;102758.72;5102520;27;20055;-74
2023/05/26 00:23:43;;;;;;;19.63;4.72;;;;;;;9.32;77.38;102766.59;5106558;27;20056;-73
2023/05/26 00:26:28;;;;;;;24.88;4.97;;;;;;;9.24;77.65;102765.69;5102246;28;20130;-73
2023/05/26 00:29:15;;;;;;;25.73;5.28;;;;;;;9.19;78.14;102764.78;5105592;27;20139;-70
2023/05/26 00:32:15;;;;;;;20.65;5.22;;;;;;;9.19;78.15;102764.78;5082454;27;20162;-72
2023/05/26 00:35:00;;;;;;;24.80;5.30;;;;;;;9.14;78.19;102769.13;5098629;27;20052;-71
2023/05/26 00:37:46;;;;;;;27.67;5.03;;;;;;;9.07;78.42;102764.72;5103358;27;20548;-73
2023/05/26 00:40:32;;;;;;;21.23;4.45;;;;;;;9.03;78.76;102771.69;5111027;28;20084;-72
2023/05/26 00:43:18;;;;;;;26.45;5.40;;;;;;;9.00;78.79;102769.03;5130113;27;20036;-72
2023/05/26 00:46:03;;;;;;;21.38;4.72;;;;;;;8.98;79.02;102769.03;5119935;27;20043;-73
2023/05/26 00:48:49;;;;;;;25.60;5.53;;;;;;;8.93;79.04;102765.47;5108321;27;20529;-73
2023/05/26 00:51:35;;;;;;;23.38;5.25;;;;;;;8.90;79.47;102770.75;5090485;28;20071;-73
2023/05/26 00:54:21;;;;;;;24.05;5.30;;;;;;;8.86;79.31;102764.53;5106154;27;20052;-72
2023/05/26 00:57:08;;;;;;;24.67;5.68;;;;;;;8.80;79.40;102761.03;5105602;27;20051;-71
2023/05/26 00:59:56;;;;;;;17.00;4.97;;;;;;;8.74;79.73;102769.72;5103044;27;20052;-71
2023/05/26 01:02:46;;;;;;;23.45;5.50;;;;;;;8.71;80.08;102767.06;5084627;28;20724;-70
2023/05/26 01:05:32;;;;;;;26.73;5.78;;;;;;;8.72;80.00;102770.56;5102574;27;20504;-71
2023/05/26 01:08:18;;;;;;;27.13;5.75;;;;;;;8.68;80.07;102780.19;5104694;27;20059;-71
2023/05/26 01:11:25;;;;;;;27.17;5.72;;;;;;;8.62;80.47;102781.00;5105668;27;20040;-70
2023/05/26 01:14:43;;;;;;;20.50;4.68;;;;;;;8.60;80.23;102781.88;5089945;28;20040;-71
2023/05/26 01:17:38;;;;;;;22.10;4.90;;;;;;;8.53;80.47;102779.19;5087947;28;20064;-70
2023/05/26 01:20:39;;;;;;;26.27;6.25;;;;;;;8.48;80.79;102780.88;5103414;27;20044;-70
2023/05/26 01:23:53;;;;;;;26.60;5.35;;;;;;;8.45;80.71;102779.94;5098585;27;20058;-72
2023/05/26 01:27:22;;;;;;;24.67;4.90;;;;;;;8.42;80.90;102782.53;5097684;28;20044;-71
2023/05/26 01:30:10;;;;;;;22.17;5.53;;;;;;;8.35;80.75;102779.88;5104705;28;20089;-71
2023/05/26 01:32:56;;;;;;;30.08;6.07;;;;;;;8.30;81.03;102785.94;5093033;28;20193;-72
2023/05/26 01:35:42;;;;;;;29.55;5.65;;;;;;;8.32;81.32;102789.47;5087631;28;20056;-71
2023/05/26 01:38:29;;;;;;;25.05;5.15;;;;;;;8.28;81.18;102785.94;5099721;27;20052;-70
2023/05/26 01:41:26;;;;;;;23.92;5.30;;;;;;;8.26;81.43;102781.50;5092728;27;20048;-70
2023/05/26 01:44:27;;;;;;;22.00;5.45;;;;;;;8.17;81.62;102775.28;5107819;27;20137;-70
2023/05/26 01:47:14;;;;;;;31.02;6.07;;;;;;;8.12;81.50;102792.75;5098841;27;20959;-70
2023/05/26 01:50:05;;;;;;;28.02;5.90;;;;;;;8.11;81.66;102787.47;5087827;27;20040;-71
2023/05/26 01:52:56;;;;;;;25.95;5.57;;;;;;;8.05;81.49;102786.56;5108528;27;20831;-70
2023/05/26 01:55:42;;;;;;;27.73;5.72;;;;;;;8.01;81.43;102790.00;5109564;27;20056;-71
2023/05/26 01:58:31;;;;;;;29.38;5.80;;;;;;;7.99;81.62;102796.97;5091146;27;20060;-71
2023/05/26 02:01:16;;;;;;;28.92;5.63;;;;;;;7.97;81.67;102792.56;5088904;27;20051;-71
2023/05/26 02:04:02;;;;;;;25.77;5.80;;;;;;;7.95;81.78;102796.91;5108728;27;20055;-71
2023/05/26 02:06:50;;;;;;;26.25;5.53;;;;;;;7.91;82.01;102794.28;5078319;27;20747;-71
2023/05/26 02:09:36;;;;;;;29.42;5.90;;;;;;;7.88;82.07;102791.59;5099319;27;20056;-71
2023/05/26 02:12:22;;;;;;;27.02;5.93;;;;;;;7.83;82.13;102788.06;5092143;28;20052;-71
2023/05/26 02:15:08;;;;;;;24.08;5.45;;;;;;;7.83;82.36;102795.94;5101977;27;20954;-70
2023/05/26 02:17:54;;;;;;;27.73;6.18;;;;;;;7.78;82.51;102795.84;5107734;27;20052;-71
2023/05/26 02:20:40;;;;;;;31.92;6.68;;;;;;;7.77;82.70;102802.00;5089450;27;20155;-71
2023/05/26 02:23:27;;;;;;;25.42;5.55;;;;;;;7.73;82.60;102794.06;5103171;28;20131;-71
2023/05/26 02:26:13;;;;;;;27.05;5.88;;;;;;;7.69;82.87;102802.75;5096225;28;20703;-71
2023/05/26 02:28:59;;;;;;;31.10;5.97;;;;;;;7.64;82.79;102809.66;5099261;27;20056;-70
2023/05/26 02:31:45;;;;;;;29.30;5.72;;;;;;;7.60;83.07;102799.13;5091329;27;20190;-70
2023/05/26 02:34:30;;;;;;;25.33;5.50;;;;;;;7.57;83.00;102803.47;5103033;27;20064;-71
2023/05/26 02:37:20;;;;;;;25.63;5.90;;;;;;;7.51;83.17;102803.34;5106999;27;20141;-71
2023/05/26 02:40:06;;;;;;;20.70;5.13;;;;;;;7.51;83.40;102798.13;5083901;28;20052;-70
2023/05/26 02:42:52;;;;;;;22.35;5.38;;;;;;;7.49;83.47;102798.09;5087754;28;20067;-70
2023/05/26 02:45:37;;;;;;;23.95;5.38;;;;;;;7.47;83.71;102805.06;5084287;28;20051;-70
2023/05/26 02:48:22;;;;;;;25.75;5.68;;;;;;;7.42;83.75;102794.50;5105854;27;20052;-70
2023/05/26 02:51:08;;;;;;;27.50;5.65;;;;;;;7.39;83.95;102804.94;5093606;27;20048;-71
2023/05/26 02:53:53;;;;;;;32.35;5.78;;;;;;;7.36;84.14;102797.06;5098007;28;20785;-70
2023/05/26 02:56:38;;;;;;;28.52;5.97;;;;;;;7.35;84.33;102805.78;5105726;28;20491;-71
2023/05/26 02:59:24;;;;;;;27.83;5.68;;;;;;;7.34;84.62;102814.50;5108529;27;20064;-70
2023/05/26 03:02:11;;;;;;;28.55;6.38;;;;;;;7.30;84.42;102810.06;5094616;27;20052;-71
2023/05/26 03:04:57;;;;;;;32.15;6.65;;;;;;;7.31;84.68;102809.22;5086614;28;20144;-70
2023/05/26 03:07:42;;;;;;;30.33;6.25;;;;;;;7.32;84.99;102804.84;5093692;28;20064;-71
2023/05/26 03:10:27;;;;;;;23.10;5.63;;;;;;;7.28;85.14;102806.53;5090584;28;20056;-71
2023/05/26 03:13:12;;;;;;;27.85;6.25;;;;;;;7.31;85.38;102806.59;5107230;28;20059;-70
2023/05/26 03:15:58;;;;;;;34.60;5.88;;;;;;;7.33;85.53;102804.88;5093009;28;20087;-71
2023/05/26 03:18:43;;;;;;;30.58;6.22;;;;;;;7.35;85.43;102810.13;5091024;28;20053;-70
2023/05/26 03:21:28;;;;;;;26.08;5.82;;;;;;;7.35;85.47;102812.75;5094515;27;20056;-70
2023/05/26 03:24:34;;;;;;;;;;;;;;;7.29;85.26;102813.53;5096491;27;20060;-70
2023/05/26 03:27:22;;;;;;;28.35;6.18;;;;;;;7.27;85.56;102815.28;5090745;28;19930;-71
2023/05/26 03:30:10;;;;;;;29.90;6.00;;;;;;;7.26;85.70;102819.63;5107467;28;20052;-72
2023/05/26 03:33:01;;;;;;;28.38;5.95;;;;;;;7.24;85.85;102817.84;5091367;28;20064;-72
2023/05/26 03:35:46;;;;;;;28.90;6.30;;;;;;;7.25;85.85;102820.50;5108950;28;20060;-72
2023/05/26 03:38:32;;;;;;;22.70;5.45;;;;;;;7.21;85.72;102817.78;5084132;28;20059;-72
2023/05/26 03:41:20;;;;;;;30.48;5.55;;;;;;;7.21;85.88;102825.66;5104858;28;20606;-73
2023/05/26 03:44:11;;;;;;;26.83;6.40;;;;;;;7.24;85.96;102826.59;5082459;28;20045;-73
2023/05/26 03:46:56;;;;;;;27.60;6.13;;;;;;;7.25;85.96;102822.25;5087804;28;20052;-73
2023/05/26 03:49:42;;;;;;;29.85;6.53;;;;;;;7.27;86.03;102829.28;5101790;27;20532;-72
2023/05/26 03:52:28;;;;;;;33.40;6.30;;;;;;;7.30;85.82;102823.19;5097472;27;20131;-73
2023/05/26 03:55:17;;;;;;;28.65;5.78;;;;;;;7.30;85.73;102825.81;5101904;28;20068;-72
2023/05/26 03:58:03;;;;;;;26.60;5.55;;;;;;;7.36;85.48;102825.03;5097458;28;20267;-71
2023/05/26 04:00:51;;;;;;;27.33;6.28;;;;;;;7.44;85.25;102832.16;5094253;28;20447;-71
2023/05/26 04:03:36;;;;;;;28.77;6.25;;;;;;;7.46;85.21;102829.53;5100375;28;20524;-71
2023/05/26 04:06:27;;;;;;;26.83;6.22;;;;;;;7.49;85.13;102839.19;5102344;27;20044;-71
2023/05/26 04:09:12;;;;;;;24.67;5.57;;;;;;;7.53;84.99;102831.38;5099620;28;20056;-71
2023/05/26 04:11:58;;;;;;;25.75;6.55;;;;;;;7.58;84.74;102834.09;5077284;28;20052;-71
2023/05/26 04:14:43;;;;;;;29.73;6.03;;;;;;;7.63;84.53;102834.16;5103299;28;20135;-71
2023/05/26 04:17:31;;;;;;;36.85;6.70;;;;;;;7.70;84.46;102829.00;5103977;28;20055;-71
2023/05/26 04:20:17;;;;;;;30.15;5.80;;;;;;;7.83;84.57;102831.78;5107725;28;20603;-71
2023/05/26 04:23:03;;;;;;;30.60;6.18;;;;;;;7.92;83.73;102835.44;5095226;28;20048;-71
2023/05/26 04:25:49;;;;;;;26.48;5.68;;;;;;;7.94;83.59;102832.81;5089116;28;20509;-70
2023/05/26 04:28:45;;;;;;;27.98;6.28;;;;;;;8.00;83.39;102834.63;5090959;28;20052;-72
2023/05/26 04:31:50;;;;;;;28.55;5.78;;;;;;;8.11;83.06;102840.00;5103010;28;20557;-71
2023/05/26 04:34:39;;;;;;;25.65;6.47;;;;;;;8.15;82.59;102833.94;5091652;28;20051;-71
2023/05/26 04:37:34;;;;;;;29.10;5.80;;;;;;;8.21;82.65;102834.00;5104806;27;20060;-71
2023/05/26 04:40:20;;;;;;;27.75;6.05;;;;;;;8.29;82.20;102841.97;5099971;28;20049;-71
2023/05/26 04:43:05;;;;;;;24.63;5.75;;;;;;;8.36;81.79;102843.81;5101716;28;20159;-71
2023/05/26 04:45:51;;;;;;;30.52;5.90;;;;;;;8.88;80.95;102837.34;5102493;27;20512;-69
2023/05/26 04:48:38;;;;;;;21.95;5.57;;;;;;;10.15;77.46;102838.97;5103909;28;20444;-69
2023/05/26 04:51:23;;;;;;;22.00;5.43;;;;;;;10.83;74.16;102846.19;5105045;28;20146;-69
2023/05/26 04:54:08;;;;;;;23.25;5.40;;;;;;;10.58;73.62;102848.81;5106300;27;20056;-69
2023/05/26 04:56:54;;;;;;;24.23;4.97;;;;;;;10.47;74.42;102846.13;5107228;28;20052;-69
2023/05/26 04:59:47;;;;;;;24.45;5.10;;;;;;;10.33;74.28;102842.53;5102787;28;20516;-68
2023/05/26 05:02:34;;;;;;;21.77;5.68;;;;;;;10.17;74.19;102839.88;5090141;28;20059;-69
2023/05/26 05:05:24;;;;;;;21.25;5.20;;;;;;;10.07;74.05;102838.94;5106588;28;20131;-69
2023/05/26 05:08:09;;;;;;;23.92;5.28;;;;;;;10.17;74.11;102845.13;5104889;27;20116;-69
2023/05/26 05:10:55;;;;;;;21.73;5.03;;;;;;;10.56;72.91;102854.06;5105759;27;20052;-69
2023/05/26 05:13:41;;;;;;;23.77;5.50;;;;;;;10.81;72.56;102855.84;5090534;28;20056;-69
2023/05/26 05:16:26;;;;;;;26.25;5.47;;;;;;;10.87;71.52;102861.16;5107208;27;20056;-69
2023/05/26 05:19:12;;;;;;;23.70;5.53;;;;;;;10.70;71.83;102861.13;5091266;28;20055;-69
2023/05/26 05:22:03;;;;;;;24.20;5.32;;;;;;;10.81;71.80;102863.75;5090444;28;20048;-69
2023/05/26 05:24:50;;;;;;;23.60;4.60;;;;;;;11.14;71.22;102856.75;5094613;28;20056;-69
2023/05/26 05:27:37;;;;;;;25.30;5.35;;;;;;;12.31;67.56;102862.63;5108309;28;20130;-68
2023/05/26 05:30:23;;;;;;;24.00;4.50;;;;;;;13.31;63.41;102853.91;5112600;28;20056;-68
2023/05/26 05:33:08;;;;;;;21.58;4.28;;;;;;;14.33;60.45;102849.22;5113040;27;20170;-68
2023/05/26 05:35:54;;;;;;;19.92;4.38;;;;;;;15.62;55.72;102853.28;5108929;27;20481;-70
2023/05/26 05:38:40;;;;;;;16.48;4.22;;;;;;;16.72;53.06;102842.03;5096584;28;20862;-70
2023/05/26 05:41:26;;;;;;;19.60;4.07;;;;;;;17.31;50.03;102843.25;5104037;28;20114;-70
2023/05/26 05:44:12;;;;;;;23.92;4.68;;;;;;;17.78;48.42;102841.06;5077964;28;20056;-70
2023/05/26 05:46:57;;;;;;;24.08;4.45;;;;;;;18.09;47.37;102847.28;5108588;28;20498;-71
2023/05/26 05:49:52;;;;;;;;;;;;;;;18.59;46.60;102854.66;5106198;27;20082;-70
2023/05/26 05:52:37;;;;;;;;;;;;;;;18.73;45.81;102859.53;5085581;28;19924;-70
2023/05/26 05:55:22;;;;;;;;;;;;;;;18.97;44.91;102859.69;5078247;28;20452;-71
2023/05/26 05:58:08;;;;;;;20.08;3.85;;;;;;;17.93;46.14;102863.75;5090896;28;20466;-71
2023/05/26 06:00:53;;;;;;;24.10;4.20;;;;;;;17.12;48.60;102865.06;5083834;28;20052;-71
2023/05/26 06:03:39;;;;;;;23.33;4.45;;;;;;;17.69;47.40;102865.31;5092518;28;20060;-70
2023/05/26 06:06:25;;;;;;;23.60;4.53;;;;;;;18.39;45.61;102860.59;5106494;28;20093;-70
2023/05/26 06:09:10;;;;;;;14.73;3.15;;;;;;;17.77;45.64;102875.75;5108717;28;20432;-71
2023/05/26 06:11:55;;;;;;;20.75;4.10;;;;;;;15.98;49.24;102872.06;5103558;28;20052;-70
2023/05/26 06:14:41;;;;;;;21.65;3.47;;;;;;;14.48;53.39;102879.06;5074712;28;20052;-70
2023/05/26 06:17:26;;;;;;;18.52;3.85;;;;;;;13.60;56.47;102887.19;5075013;28;20505;-69
2023/05/26 06:20:12;;;;;;;18.65;4.05;;;;;;;13.12;58.25;102887.66;5088256;28;20060;-70
2023/05/26 06:22:58;;;;;;;21.55;4.30;;;;;;;12.81;59.18;102893.19;5083483;27;20110;-70
2023/05/26 06:25:43;;;;;;;22.60;5.03;;;;;;;12.61;60.66;102895.94;5105890;28;20100;-70
2023/05/26 06:28:32;;;;;;;15.20;3.75;;;;;;;12.55;60.76;102906.56;5102787;28;20049;-70
2023/05/26 06:31:19;;;;;;;14.38;3.47;;;;;;;12.40;61.38;102896.94;5100975;28;20756;-70
2023/05/26 06:34:10;;;;;;;27.00;5.13;;;;;;;12.20;61.67;102900.56;5093377;28;20059;-69
2023/05/26 06:36:56;;;;;;;21.17;4.25;;;;;;;12.06;62.12;102889.16;5099067;28;20056;-70
2023/05/26 06:39:41;;;;;;;19.88;4.65;;;;;;;11.96;63.23;102896.19;5108588;28;20060;-70
2023/05/26 06:42:32;;;;;;;22.90;4.45;;;;;;;11.96;63.44;102897.09;5091906;28;20191;-70
2023/05/26 06:45:17;;;;;;;21.52;4.25;;;;;;;11.97;63.16;102884.75;5108992;28;20048;-70
2023/05/26 06:48:05;;;;;;;21.92;4.40;;;;;;;11.98;63.42;102894.47;5108288;28;20110;-70
2023/05/26 06:50:56;;;;;;;19.17;4.50;;;;;;;12.06;62.95;102894.44;5107065;28;20113;-70
2023/05/26 06:53:41;;;;;;;20.80;4.35;;;;;;;12.09;62.82;102894.44;5107984;28;20056;-70
2023/05/26 06:56:29;;;;;;;19.55;4.68;;;;;;;12.15;61.95;102902.34;5108331;28;20064;-70
2023/05/26 06:59:14;;;;;;;19.30;4.97;;;;;;;12.13;62.23;102893.53;5108342;28;20145;-70
2023/05/26 07:01:59;;;;;;;19.67;4.13;;;;;;;12.16;62.64;102903.25;5100884;28;20131;-70
2023/05/26 07:04:45;;;;;;;21.63;4.60;;;;;;;12.32;61.79;102891.69;5107426;28;20232;-70
2023/05/26 07:07:31;;;;;;;20.73;4.13;;;;;;;12.35;62.17;102893.44;5106292;28;20048;-70
2023/05/26 07:10:17;;;;;;;15.05;3.55;;;;;;;12.47;61.26;102896.03;5106396;28;20060;-70
2023/05/26 07:13:02;;;;;;;16.33;3.85;;;;;;;12.45;60.84;102891.63;5092773;28;20201;-70
2023/05/26 07:15:52;;;;;;;18.73;3.70;;;;;;;12.39;60.70;102905.78;5107403;28;20524;-70
2023/05/26 07:18:38;;;;;;;20.23;4.18;;;;;;;12.38;60.63;102906.66;5107399;28;20201;-71
2023/05/26 07:21:25;;;;;;;17.23;4.03;;;;;;;12.39;61.30;102906.63;5093754;28;20246;-71
2023/05/26 07:24:11;;;;;;;19.52;4.47;;;;;;;12.60;60.93;102911.84;5092849;28;20571;-71
2023/05/26 07:26:57;;;;;;;17.20;4.45;;;;;;;12.67;60.37;102906.47;5076082;28;20094;-71
2023/05/26 07:29:42;;;;;;;14.45;4.18;;;;;;;12.79;60.09;102923.16;5106692;28;20052;-70
2023/05/26 07:32:28;;;;;;;15.45;3.63;;;;;;;12.81;59.12;102914.34;5100875;28;20567;-70
2023/05/26 07:35:13;;;;;;;20.98;4.55;;;;;;;12.76;59.85;102917.91;5078518;27;20072;-71
2023/05/26 07:37:59;;;;;;;13.98;3.92;;;;;;;12.90;59.63;102918.69;5091008;27;20052;-71
2023/05/26 07:40:44;;;;;;;23.30;4.05;;;;;;;12.99;59.25;102923.03;5106632;28;20575;-71
2023/05/26 07:43:30;;;;;;;17.15;3.97;;;;;;;13.07;58.68;102917.69;5101361;28;20596;-71
2023/05/26 07:46:15;;;;;;;21.23;4.53;;;;;;;12.92;59.35;102913.41;5108422;28;20064;-70
2023/05/26 07:49:01;;;;;;;17.17;3.83;;;;;;;13.08;58.75;102914.13;5101996;28;20040;-70
2023/05/26 07:51:46;;;;;;;20.33;4.50;;;;;;;13.15;58.25;102905.28;5106818;28;20107;-71
2023/05/26 07:54:32;;;;;;;15.25;3.88;;;;;;;13.33;58.46;102913.06;5107676;28;20056;-71
2023/05/26 07:57:17;;;;;;;21.38;3.97;;;;;;;13.49;56.77;102907.63;5105176;28;20056;-70
2023/05/26 08:00:14;;;;;;;15.13;3.90;;;;;;;13.50;57.26;102906.75;5087912;28;20097;-71
2023/05/26 08:03:00;;;;;;;16.30;3.85;;;;;;;13.59;57.59;102906.66;5103124;28;20056;-70
2023/05/26 08:05:47;;;;;;;20.90;4.43;;;;;;;13.70;57.07;102898.59;5101681;28;20885;-71
2023/05/26 08:08:34;;;;;;;13.98;3.75;;;;;;;13.83;56.31;102907.28;5107651;28;20052;-71
2023/05/26 08:11:20;;;;;;;19.08;4.22;;;;;;;13.91;54.97;102907.22;5107000;28;20056;-71
2023/05/26 08:14:06;;;;;;;17.85;4.13;;;;;;;13.97;55.77;102907.13;5101638;28;20078;-71
2023/05/26 08:16:52;;;;;;;18.70;4.00;;;;;;;14.03;55.63;102903.53;5107243;27;20520;-71
2023/05/26 08:19:38;;;;;;;18.05;3.97;;;;;;;13.99;55.53;102897.38;5103086;28;20083;-71
2023/05/26 08:22:24;;;;;;;15.88;4.20;;;;;;;14.02;55.02;102904.41;5104902;28;20044;-71
2023/05/26 08:25:09;;;;;;;21.20;4.80;;;;;;;13.95;55.57;102900.97;5107558;28;20142;-71
2023/05/26 08:27:56;;;;;;;17.17;4.32;;;;;;;14.01;56.00;102902.66;5104857;28;20142;-70
2023/05/26 08:30:41;;;;;;;18.52;4.35;;;;;;;14.17;55.32;102906.00;5104175;28;20131;-71
2023/05/26 08:33:27;;;;;;;19.30;4.20;;;;;;;14.29;55.29;102906.72;5095815;28;20056;-71
2023/05/26 08:36:12;;;;;;;13.15;3.58;;;;;;;14.40;53.63;102901.28;5105734;28;20053;-71
2023/05/26 08:38:58;;;;;;;16.38;3.95;;;;;;;14.50;52.44;102904.69;5106188;27;20575;-72
2023/05/26 08:41:59;;;;;;;24.25;4.53;;;;;;;14.37;53.32;102905.75;5103616;28;20110;-71
2023/05/26 08:44:45;;;;;;;13.60;4.00;;;;;;;14.39;53.58;102903.97;5098023;28;20044;-71
2023/05/26 08:47:35;;;;;;;16.38;4.32;;;;;;;14.50;53.07;102907.31;5089048;28;20049;-71
2023/05/26 08:50:21;;;;;;;19.48;4.22;;;;;;;14.54;53.93;102900.22;5089915;28;20055;-71
2023/05/26 08:53:06;;;;;;;17.88;4.28;;;;;;;14.80;52.96;102902.53;5107331;28;20063;-71
2023/05/26 08:55:51;;;;;;;17.00;4.07;;;;;;;14.96;50.82;102896.97;5105546;28;20124;-71
2023/05/26 08:58:39;;;;;;;16.13;3.63;;;;;;;14.97;50.71;102896.06;5107459;28;20483;-71
2023/05/26 09:01:24;;;;;;;14.18;3.63;;;;;;;14.86;51.47;102901.53;5103598;28;20575;-71
2023/05/26 09:04:09;;;;;;;18.58;4.82;;;;;;;14.90;52.64;102900.59;5101444;28;20130;-70
2023/05/26 09:06:55;;;;;;;20.25;4.63;;;;;;;15.02;53.16;102891.53;5102689;28;20150;-71
2023/05/26 09:10:30;;;;;;;18.02;4.03;;;;;;;15.38;51.77;102902.47;5091793;28;20778;-70
2023/05/26 09:13:18;;;;;;;16.97;3.97;;;;;;;15.47;49.83;102890.75;5094541;28;20052;-71
2023/05/26 09:16:12;;;;;;;19.95;3.95;;;;;;;15.51;49.34;102876.53;5106333;28;20262;-70
2023/05/26 09:19:01;;;;;;;15.98;3.28;;;;;;;15.56;48.78;102885.31;5099192;28;20060;-70
2023/05/26 09:21:52;;;;;;;20.95;3.90;;;;;;;15.65;48.88;102886.91;5104843;28;20056;-70
2023/05/26 09:24:49;;;;;;;17.33;4.13;;;;;;;15.84;47.65;102890.97;5106925;28;20044;-70
2023/05/26 09:27:35;;;;;;;13.95;3.40;;;;;;;16.06;46.99;102893.22;5106400;28;20048;-71
2023/05/26 09:30:21;;;;;;;14.90;3.80;;;;;;;16.02;47.40;102885.31;5105540;28;20088;-70
2023/05/26 09:33:14;;;;;;;17.00;3.55;;;;;;;16.06;46.66;102885.22;5105155;28;20052;-70
2023/05/26 09:36:02;;;;;;;16.63;3.80;;;;;;;16.12;46.42;102892.19;5103900;28;20060;-71
2023/05/26 09:38:51;;;;;;;16.70;3.80;;;;;;;16.18;45.77;102878.75;5106023;28;20508;-71
2023/05/26 09:41:42;;;;;;;15.60;3.15;;;;;;;16.29;45.13;102892.72;5105058;28;20064;-71
2023/05/26 09:44:32;;;;;;;17.75;3.70;;;;;;;16.31;44.83;102882.06;5104225;28;20048;-70
2023/05/26 09:47:21;;;;;;;11.82;3.28;;;;;;;16.40;44.87;102888.94;5107631;28;20051;-70
2023/05/26 09:50:07;;;;;;;15.63;3.63;;;;;;;16.38;45.62;102888.97;5104231;28;20048;-70
2023/05/26 09:52:53;;;;;;;21.35;4.05;;;;;;;16.51;46.87;102894.91;5102559;28;20113;-70
2023/05/26 09:55:40;;;;;;;11.57;3.33;;;;;;;16.73;45.28;102894.41;5087423;28;20052;-70
2023/05/26 09:58:28;;;;;;;16.30;3.88;;;;;;;16.78;43.86;102887.19;5104756;27;20095;-70
2023/05/26 10:01:17;;;;;;;10.27;3.47;;;;;;;16.81;43.47;102894.22;5097661;28;20052;-70
2023/05/26 10:04:07;;;;;;;14.40;3.47;;;;;;;16.89;43.40;102893.09;5108093;28;20051;-69
2023/05/26 10:06:55;;;;;;;13.48;3.65;;;;;;;17.00;43.72;102887.56;5108666;28;20056;-70
2023/05/26 10:09:42;;;;;;;13.73;3.63;;;;;;;17.08;43.03;102888.25;5109283;28;20606;-70
2023/05/26 10:12:33;;;;;;;12.73;3.20;;;;;;;17.07;43.83;102877.63;5110052;28;20672;-71
2023/05/26 10:15:19;;;;;;;14.90;4.05;;;;;;;17.26;42.89;102874.47;5095315;28;20429;-70
2023/05/26 10:18:05;;;;;;;11.70;3.55;;;;;;;17.36;42.09;102882.19;5106956;28;20056;-70
2023/05/26 10:20:55;;;;;;;8.45;2.40;;;;;;;17.44;40.09;102886.47;5107857;28;20052;-71
2023/05/26 10:23:50;;;;;;;12.65;3.65;;;;;;;17.30;40.91;102881.47;5124188;28;20048;-70
2023/05/26 10:26:58;;;;;;;10.32;3.10;;;;;;;17.26;41.43;102869.16;5132408;28;20090;-71
2023/05/26 10:30:00;;;;;;;13.23;3.88;;;;;;;17.38;40.73;102872.34;5117317;28;20163;-70
2023/05/26 10:32:49;;;;;;;14.80;3.22;;;;;;;17.63;39.73;102866.38;5109047;28;20048;-72
2023/05/26 10:35:34;;;;;;;11.13;3.10;;;;;;;17.66;39.80;102863.59;5110566;27;20059;-70
2023/05/26 10:38:19;;;;;;;12.57;3.03;;;;;;;17.88;39.53;102856.78;5104469;28;20059;-70
2023/05/26 10:41:12;;;;;;;12.27;3.17;;;;;;;17.91;38.93;102856.66;5099965;28;20056;-70
2023/05/26 10:44:00;;;;;;;9.57;2.72;;;;;;;17.85;39.31;102850.63;5100345;28;20063;-70
2023/05/26 10:46:46;;;;;;;15.30;3.20;;;;;;;17.89;39.05;102848.72;5104236;28;20056;-70
2023/05/26 10:49:35;;;;;;;11.68;3.47;;;;;;;17.89;39.56;102850.53;5100305;28;20043;-71
2023/05/26 10:52:21;;;;;;;13.48;3.58;;;;;;;18.06;38.29;102852.75;5106768;28;20114;-71
2023/05/26 10:55:07;;;;;;;13.82;3.30;;;;;;;17.99;37.17;102847.56;5109595;28;20052;-71
2023/05/26 10:57:52;;;;;;;14.20;2.97;;;;;;;18.04;36.25;102851.91;5109395;28;20544;-71
2023/05/26 11:00:38;;;;;;;10.57;2.85;;;;;;;18.02;37.95;102854.59;5108723;28;20055;-71
2023/05/26 11:03:44;;;;;;;13.27;3.05;;;;;;;18.08;38.08;102857.09;5109723;28;20063;-71
2023/05/26 11:06:54;;;;;;;12.90;3.47;;;;;;;17.98;38.18;102843.16;5110825;27;20122;-71
2023/05/26 11:10:05;;;;;;;7.35;2.50;;;;;;;18.26;36.34;102846.78;5109448;27;20056;-71
2023/05/26 11:12:58;;;;;;;9.60;3.15;;;;;;;18.18;36.07;102851.47;5104933;28;20056;-71
2023/05/26 11:15:44;;;;;;;13.02;2.72;;;;;;;18.27;35.23;102846.72;5094123;28;20060;-71
2023/05/26 11:18:29;;;;;;;10.52;2.90;;;;;;;18.33;36.21;102844.78;5108734;28;20056;-72
2023/05/26 11:21:17;;;;;;;7.65;2.72;;;;;;;18.49;35.16;102854.06;5107171;27;20060;-71
2023/05/26 11:24:04;;;;;;;14.77;2.92;;;;;;;18.60;35.58;102854.59;5108260;28;20067;-71
2023/05/26 11:26:50;;;;;;;9.27;2.63;;;;;;;18.75;34.63;102837.19;5107503;28;20502;-70
2023/05/26 11:29:36;;;;;;;13.82;3.13;;;;;;;18.83;34.80;102838.72;5108691;27;20468;-71
2023/05/26 11:32:21;;;;;;;14.88;4.10;;;;;;;18.80;35.28;102839.69;5109554;28;20048;-71
2023/05/26 11:35:28;;;;;;;14.38;3.03;;;;;;;18.99;34.98;102840.00;5107153;28;20056;-71
2023/05/26 11:38:13;;;;;;;17.15;3.50;;;;;;;18.96;36.02;102833.88;5109236;28;20167;-71
2023/05/26 11:40:59;;;;;;;13.85;2.97;;;;;;;19.02;35.88;102842.56;5100614;28;20052;-71
2023/05/26 11:43:46;;;;;;;12.98;2.97;;;;;;;19.00;36.63;102841.75;5097493;28;20139;-71
2023/05/26 11:46:32;;;;;;;16.25;3.55;;;;;;;19.06;38.32;102837.97;5108019;28;20108;-71
2023/05/26 11:49:18;;;;;;;11.35;3.13;;;;;;;19.35;36.50;102839.63;5098899;28;20577;-71
2023/05/26 11:52:04;;;;;;;10.70;2.90;;;;;;;19.47;34.67;102832.97;5109487;28;20420;-71
2023/05/26 11:54:49;;;;;;;13.98;3.40;;;;;;;19.45;35.36;102832.16;5103589;27;20052;-71
2023/05/26 11:57:36;;;;;;;8.10;2.42;;;;;;;19.39;34.75;102824.31;5107114;27;20781;-71
2023/05/26 12:00:22;;;;;;;8.88;2.28;;;;;;;19.35;32.11;102823.56;5107640;27;20189;-71
2023/05/26 12:03:18;;;;;;;9.57;2.40;;;;;;;19.43;32.46;102830.47;5108807;27;20048;-71
2023/05/26 12:06:22;;;;;;;11.55;2.47;;;;;;;19.50;31.99;102822.13;5089244;28;20044;-71
2023/05/26 12:09:21;;;;;;;7.93;2.38;;;;;;;19.68;31.50;102838.47;5085355;28;20560;-71
2023/05/26 12:12:10;;;;;;;10.02;2.60;;;;;;;19.51;32.66;102839.94;5099667;28;20051;-71
2023/05/26 12:15:07;;;;;;;10.05;2.55;;;;;;;19.60;33.71;102837.84;5108088;28;20530;-71
2023/05/26 12:17:55;;;;;;;12.52;3.10;;;;;;;19.74;32.91;102832.00;5109282;28;20060;-71
2023/05/26 12:20:41;;;;;;;7.93;2.40;;;;;;;19.71;33.87;102835.63;5107655;28;20133;-71
2023/05/26 12:23:47;;;;;;;10.90;2.58;;;;;;;19.83;33.09;102824.47;5108091;27;20052;-71
2023/05/26 12:26:32;;;;;;;12.35;2.92;;;;;;;19.96;33.32;102819.56;5104656;27;20063;-71
2023/05/26 12:29:19;;;;;;;15.45;2.75;;;;;;;19.98;34.61;102817.69;5102643;28;20056;-71
2023/05/26 12:32:06;;;;;;;12.93;2.72;;;;;;;20.01;33.77;102816.69;5101480;28;20094;-71
2023/05/26 12:34:52;;;;;;;10.60;2.60;;;;;;;20.16;32.92;102818.78;5104954;28;20650;-71
2023/05/26 12:37:37;;;;;;;13.50;2.90;;;;;;;20.23;33.11;102818.53;5103653;28;20048;-70
2023/05/26 12:40:23;;;;;;;14.18;2.60;;;;;;;20.29;32.88;102810.25;5104026;28;20060;-70
2023/05/26 12:43:08;;;;;;;12.93;2.78;;;;;;;20.33;33.61;102811.88;5102590;28;20056;-70
2023/05/26 12:45:54;;;;;;;13.43;2.55;;;;;;;20.59;33.02;102809.94;5106437;28;20060;-71
2023/05/26 12:48:39;;;;;;;11.07;2.60;;;;;;;20.56;33.02;102799.34;5103150;28;20495;-72
2023/05/26 12:51:25;;;;;;;12.75;2.70;;;;;;;20.65;33.10;102804.31;5104713;28;20049;-71
2023/05/26 12:54:11;;;;;;;13.05;2.95;;;;;;;20.64;32.14;102798.09;5105491;28;20056;-71
2023/05/26 12:56:57;;;;;;;9.05;2.42;;;;;;;20.75;31.73;102804.84;5104959;27;20508;-71
2023/05/26 12:59:43;;;;;;;12.18;2.55;;;;;;;20.83;32.33;102801.81;5105669;28;20055;-71